Flight Track Log - Related Links

Times and Time Zones

All times are in EDT time to prevent confusion due to time zone crossing. See the AAY840 flight status page for this flight to view local times or setup timezone preferences in your user account.

Time Position Orientation Groundspeed Altitude Reporting Facility
EDT Latitude Longitude Course Direction KTS MPH feet Rate Location/Type
Thu 08:48:42 AM 27.9000 -82.6833 180° South 152 175 700  Level Tampa TRACON
Thu 08:49:36 AM 27.8500 -82.6833 180° South 200 230 2,000 2,105 Climbing Tampa TRACON
Thu 08:50:36 AM 27.8000 -82.7000 196° South 239 275 4,700 2,500 Climbing Tampa TRACON
Thu 08:51:36 AM 27.8500 -82.7500 319° Northwest 258 297 7,000 2,386 Climbing Tampa TRACON
Thu 08:53:22 AM 27.9692 -82.7572 357° North 257 296 11,300 2,000 Climbing Miami Center
Thu 08:54:24 AM 28.0550 -82.7622 357° North 301 346 12,600 1,415 Climbing Miami Center
Thu 08:55:25 AM 28.1581 -82.7661 358° North 356 410 14,200 1,561 Climbing Miami Center
Thu 08:56:27 AM 28.2628 -82.7558 North 366 421 15,800 1,366 Climbing Miami Center
Thu 08:57:28 AM 28.3775 -82.7469 North 396 456 17,000 1,317 Climbing Miami Center
Thu 08:58:30 AM 28.4975 -82.7469 360° North 422 486 18,500 1,548 Climbing Miami Center
Thu 08:59:32 AM 28.6464 -82.7389 North 442 509 20,200 1,561 Climbing Miami Center
Thu 09:00:33 AM 28.7706 -82.7267 North 444 511 21,700 1,268 Climbing Miami Center
Thu 09:01:35 AM 28.8950 -82.7114 North 448 516 22,800 629 Climbing Miami Center
Thu 09:02:37 AM 29.0239 -82.6997 North 460 529 23,000 98 Climbing Miami Center
Thu 09:03:38 AM 29.1511 -82.6881 North 462 532 23,000 195 Level Miami Center
Thu 09:04:40 AM 29.2786 -82.6897 359° North 461 531 23,400 732 Climbing Miami Center
Thu 09:05:41 AM 29.4072 -82.6931 359° North 461 531 24,500 976 Climbing Miami Center
Thu 09:06:43 AM 29.5636 -82.6711 North 473 544 25,400 919 Climbing Miami Center
Thu 09:07:45 AM 29.6961 -82.6544 North 481 554 26,400 1,171 Climbing Miami Center
Thu 09:08:46 AM 29.8286 -82.6372 North 484 557 27,800 1,181 Climbing Miami Center
Thu 09:09:52 AM 29.9844 -82.6169 North 484 557 28,900 1,056 Climbing Jacksonville Center
Thu 09:10:51 AM 30.1056 -82.6044 North 479 551 30,000 1,160 Climbing Jacksonville Center
Thu 09:11:51 AM 30.2517 -82.5872 North 479 551 31,200 1,240 Climbing Jacksonville Center
Thu 09:12:52 AM 30.3850 -82.5700 North 479 551 32,500 1,190 Climbing Jacksonville Center
Thu 09:13:52 AM 30.5167 -82.5550 North 479 551 33,600 1,100 Climbing Jacksonville Center
Thu 09:14:52 AM 30.6481 -82.5472 North 479 551 34,700 950 Climbing Jacksonville Center
Thu 09:15:52 AM 30.7817 -82.5444 North 474 545 35,500 900 Climbing Jacksonville Center
Thu 09:16:52 AM 30.9111 -82.5392 North 474 545 36,500 706 Climbing Jacksonville Center
Thu 09:17:51 AM 31.0428 -82.5336 North 474 545 36,900 252 Climbing Jacksonville Center
Thu 09:18:51 AM 31.1722 -82.5258 North 474 545 37,000  Climbing Jacksonville Center
Thu 09:19:51 AM 31.3036 -82.5206 North 469 540 36,900  Descending Jacksonville Center
Thu 09:20:52 AM 31.4311 -82.5103 North 469 540 37,000 50 Climbing Jacksonville Center
Thu 09:21:52 AM 31.5625 -82.5050 North 469 540 37,000  Level Jacksonville Center
Thu 09:22:55 AM 31.6867 -82.4842 North 478 550 37,000  Level Atlanta Center
Thu 09:23:55 AM 31.8181 -82.4650 North 478 550 37,000  Level Atlanta Center
Thu 09:24:55 AM 31.9492 -82.4453 North 472 543 37,000  Level Atlanta Center
Thu 09:25:55 AM 32.0783 -82.4236 North 472 543 37,000  Level Atlanta Center
Thu 09:26:55 AM 32.2094 -82.4039 North 472 543 37,000  Level Atlanta Center
Thu 09:27:55 AM 32.3367 -82.3844 North 467 537 37,000  Level Atlanta Center
Thu 09:28:55 AM 32.4678 -82.3622 North 461 531 37,000 -50 Level Atlanta Center
Thu 09:29:55 AM 32.5969 -82.3425 North 461 531 36,900 -450 Descending Atlanta Center
Thu 09:30:55 AM 32.7281 -82.3228 North 461 531 36,100 -900 Descending Atlanta Center
Thu 09:31:55 AM 32.8572 -82.3006 North 466 536 35,100 -950 Descending Atlanta Center
Thu 09:32:55 AM 32.9886 -82.2806 North 466 536 34,200 -950 Descending Atlanta Center
Thu 09:33:55 AM 33.1175 -82.2581 North 466 536 33,200 -600 Descending Atlanta Center
Thu 09:34:55 AM 33.2592 -82.2328 North 466 536 33,000 -100 Descending Atlanta Center
Thu 09:35:55 AM 33.3883 -82.2153 North 466 536 33,000  Level Atlanta Center
Thu 09:36:55 AM 33.5153 -82.1925 North 466 536 33,000 -50 Level Atlanta Center
Thu 09:37:55 AM 33.6422 -82.1697 North 466 536 32,900  Descending Atlanta Center
Thu 09:38:55 AM 33.7692 -82.1497 North 461 531 33,000 50 Climbing Atlanta Center
Thu 09:39:55 AM 33.8961 -82.1267 North 461 531 33,000  Level Atlanta Center
Thu 09:40:55 AM 34.0253 -82.1064 North 461 531 33,000  Level Atlanta Center
Thu 09:41:55 AM 34.1397 -82.0861 North 466 536 33,000  Level Atlanta Center
Thu 09:42:55 AM 34.2647 -82.0633 North 461 531 33,000  Level Atlanta Center
Thu 09:43:55 AM 34.3936 -82.0425 North 461 531 33,000 -350 Level Atlanta Center
Thu 09:44:55 AM 34.5186 -82.0194 North 461 531 32,300 -500 Descending Atlanta Center
Thu 09:45:55 AM 34.6433 -81.9961 North 461 531 32,000 -450 Descending Atlanta Center
Thu 09:46:55 AM 34.7703 -81.9728 North 461 531 31,400 -1,350 Descending Atlanta Center
Thu 09:47:55 AM 34.8908 -81.9497 North 455 524 29,300 -2,400 Descending Atlanta Center
Thu 09:48:55 AM 35.0222 -81.9361 North 443 510 26,600 -2,400 Descending Atlanta Center
Thu 09:49:55 AM 35.1308 -81.9461 356° North 417 480 24,500 -1,300 Descending Atlanta Center
Thu 09:50:55 AM 35.2397 -81.9611 354° North 400 460 24,000 -1,050 Descending Atlanta Center
Thu 09:51:55 AM 35.3464 -81.9764 353° North 390 449 22,400 -1,950 Descending Atlanta Center
Thu 09:52:55 AM 35.4467 -81.9942 352° North 379 436 20,100 -2,250 Descending Atlanta Center
Thu 09:53:55 AM 35.5411 -82.0300 343° North 355 409 17,900 -2,200 Descending Atlanta Center
Thu 09:54:55 AM 35.6314 -82.0664 342° North 350 403 15,700 -2,100 Descending Atlanta Center
Thu 09:55:55 AM 35.7175 -82.1000 342° North 339 390 13,700 -2,150 Descending Atlanta Center
Thu 09:56:55 AM 35.8014 -82.1339 342° North 326 375 11,400 -1,350 Descending Atlanta Center
Thu 09:57:55 AM 35.8750 -82.1628 342° North 316 364 11,000 -200 Descending Atlanta Center
Thu 09:58:55 AM 35.9547 -82.1944 342° North 303 349 11,000  Level Atlanta Center
Thu 09:59:55 AM 36.0283 -82.2286 339° North 298 343 11,000 -300 Level Atlanta Center
Thu 10:00:55 AM 36.1100 -82.2603 343° North 287 330 10,400 -1,000 Descending Atlanta Center
Thu 10:01:55 AM 36.1853 -82.2792 349° North 282 325 9,000 -1,200 Descending Atlanta Center
Thu 10:02:55 AM 36.2603 -82.2647 North 276 318 8,000 -1,150 Descending Atlanta Center
Thu 10:03:55 AM 36.3311 -82.2683 358° North 265 305 6,700 -1,450 Descending Atlanta Center
Thu 10:04:55 AM 36.4044 -82.2872 348° North 265 305 5,100 -1,000 Descending Atlanta Center
Thu 10:05:55 AM 36.4694 -82.2986 352° North 248 285 4,700 -400 Descending Atlanta Center
Thu 10:07:00 AM 36.4667 -82.4000 North  Level FlightAware Approximate
Thu 10:14:00 AM 36.4752 -82.4074 North  Level Estimated
Thu 10:15:00 AM 36.4752 -82.4074 North  Level Estimated
Thu 10:16:00 AM 36.4752 -82.4074 North  Level Estimated
Thu 10:17:00 AM 36.4752 -82.4074 North  Level Estimated

Login

Don't have an account? Register now (free) for customized features, flight alerts, and more!